PWSweather.com
Personal Weather Stations
Station Observations
KPAGREEN17
Chestnut Hill Farm, Greensburg, PA 15601

Chestnut Hill FarmGreensburg, PA 15601

Lat: 40.32, Lon: -79.55

Elevation: 1148

Station Type: OR 968

Latest ConditionsUpdated 11:15:02 AM EST Wednesday, Dec 7, 2016
Currently Today's Max Today's Min Today's Average
Temperature 36.2°F2.3°C 43.4°F6.3°C 33.6°F0.9°C 38.1°F3.4°C
Dew Point 27.3°F-2.6°C 43.4°F6.3°C 26.1°F-3.3°C 36.7°F2.6°C
Winds 1.1 mph NE1.8 kmh NE 3.5 mph SW5.6 kmh SW - 1.0 mph 1.6 kmh
Wind Gusts -- 5.8 mph9.3 kmh - -
Humidity 70% 100% 67% 95%
Pressure 30.02 in1016.6 mb 30.02 in1016.6 mb 29.75 in1007.5 mb -
Hour Temp Dew Point Humidity Winds Wind Gusts Pressure Precip Precip Rate Daily Precip Total
11:15 AM 36.2°F2.3°C 27.3°F-2.6°C 70% 1.1 mph NE1.8 kmh NE -- 30.02 in1016.6 mb - 0.00 in0.0 mm 0.04 in1.0 mm
11:00 AM 36.0°F2.2°C 26.1°F-3.3°C 67% 1.1 mph S1.8 kmh S 3.5 mph5.6 kmh 30.02 in1016.6 mb - 0.00 in0.0 mm 0.04 in1.0 mm
10:45 AM 37.4°F3.0°C 30.2°F-1.0°C 75% 1.1 mph ESE1.8 kmh ESE 2.3 mph3.7 kmh 30.02 in1016.6 mb - 0.00 in0.0 mm 0.04 in1.0 mm
10:30 AM 35.4°F1.9°C 27.0°F-2.8°C 71% 2.3 mph E3.7 kmh E 2.3 mph3.7 kmh 30.02 in1016.6 mb - 0.00 in0.0 mm 0.04 in1.0 mm
10:15 AM 36.0°F2.2°C 28.1°F-2.2°C 73% 1.1 mph NE1.8 kmh NE 2.3 mph3.7 kmh 30.02 in1016.6 mb - 0.00 in0.0 mm 0.04 in1.0 mm
10:00 AM 36.3°F2.4°C 28.8°F-1.8°C 74% 2.3 mph NW3.7 kmh NW 4.6 mph7.4 kmh 30.02 in1016.6 mb - 0.00 in0.0 mm 0.04 in1.0 mm
09:45 AM 37.0°F2.8°C 32.9°F0.5°C 85% 1.1 mph E1.8 kmh E 1.1 mph1.8 kmh 30.02 in1016.6 mb - 0.00 in0.0 mm 0.04 in1.0 mm
09:30 AM 36.4°F2.4°C 33.4°F0.8°C 89% 1.1 mph E1.8 kmh E 2.3 mph3.7 kmh 30.02 in1016.6 mb - 0.00 in0.0 mm 0.04 in1.0 mm
09:15 AM 36.2°F2.3°C 34.1°F1.2°C 92% 1.1 mph ESE1.8 kmh ESE 4.6 mph7.4 kmh 30.01 in1016.3 mb - 0.00 in0.0 mm 0.04 in1.0 mm
09:00 AM 35.6°F2.0°C 34.3°F1.3°C 95% Calm Calm 3.5 mph5.6 kmh 30.02 in1016.6 mb - 0.00 in0.0 mm 0.04 in1.0 mm
08:45 AM 34.9°F1.6°C 33.9°F1.1°C 96% 1.1 mph SSW1.8 kmh SSW 2.3 mph3.7 kmh 29.99 in1015.6 mb - 0.00 in0.0 mm 0.04 in1.0 mm
08:30 AM 34.7°F1.5°C 34.4°F1.3°C 99% Calm Calm 1.1 mph1.8 kmh 29.99 in1015.6 mb - 0.00 in0.0 mm 0.04 in1.0 mm
08:15 AM 34.2°F1.2°C 34.2°F1.2°C 100% Calm Calm 1.1 mph1.8 kmh 29.99 in1015.6 mb - 0.00 in0.0 mm 0.04 in1.0 mm
08:00 AM 33.6°F0.9°C 33.6°F0.9°C 100% Calm Calm -- 29.99 in1015.6 mb - 0.00 in0.0 mm 0.04 in1.0 mm
07:45 AM 33.8°F1.0°C 33.8°F1.0°C 100% Calm Calm 1.1 mph1.8 kmh 29.99 in1015.6 mb - 0.00 in0.0 mm 0.04 in1.0 mm
07:30 AM 34.7°F1.5°C 34.7°F1.5°C 100% Calm Calm -- 29.99 in1015.6 mb - 0.00 in0.0 mm 0.04 in1.0 mm
07:15 AM 35.2°F1.8°C 35.2°F1.8°C 100% Calm Calm -- 29.99 in1015.6 mb - 0.00 in0.0 mm 0.04 in1.0 mm
07:00 AM 35.7°F2.1°C 35.7°F2.1°C 100% Calm Calm -- 29.98 in1015.2 mb - 0.00 in0.0 mm 0.04 in1.0 mm
06:45 AM 36.1°F2.3°C 36.1°F2.3°C 100% Calm Calm -- 29.96 in1014.6 mb - 0.00 in0.0 mm 0.04 in1.0 mm
06:30 AM 36.3°F2.4°C 36.3°F2.4°C 100% 1.1 mph WSW1.8 kmh WSW -- 29.96 in1014.6 mb - 0.00 in0.0 mm 0.04 in1.0 mm
06:15 AM 36.8°F2.7°C 36.8°F2.7°C 100% Calm Calm -- 29.96 in1014.6 mb - 0.00 in0.0 mm 0.04 in1.0 mm
06:00 AM 36.8°F2.7°C 36.8°F2.7°C 100% Calm Calm 2.3 mph3.7 kmh 29.96 in1014.6 mb - 0.00 in0.0 mm 0.04 in1.0 mm
05:45 AM 36.9°F2.7°C 36.9°F2.7°C 100% 1.1 mph ESE1.8 kmh ESE -- 29.96 in1014.6 mb - 0.00 in0.0 mm 0.04 in1.0 mm
05:30 AM 37.0°F2.8°C 37.0°F2.8°C 100% Calm Calm 1.1 mph1.8 kmh 29.96 in1014.6 mb - 0.00 in0.0 mm 0.04 in1.0 mm
05:15 AM 36.9°F2.7°C 36.9°F2.7°C 100% 1.1 mph SE1.8 kmh SE 2.3 mph3.7 kmh 29.95 in1014.2 mb - 0.00 in0.0 mm 0.04 in1.0 mm
05:00 AM 36.9°F2.7°C 36.9°F2.7°C 100% 1.1 mph E1.8 kmh E 2.3 mph3.7 kmh 29.93 in1013.5 mb - 0.00 in0.0 mm 0.04 in1.0 mm
04:45 AM 36.9°F2.7°C 36.9°F2.7°C 100% 1.1 mph E1.8 kmh E 1.1 mph1.8 kmh 29.93 in1013.5 mb - 0.00 in0.0 mm 0.04 in1.0 mm
04:30 AM 36.9°F2.7°C 36.9°F2.7°C 100% 1.1 mph E1.8 kmh E 2.3 mph3.7 kmh 29.92 in1013.2 mb - 0.00 in0.0 mm 0.04 in1.0 mm
04:15 AM 37.2°F2.9°C 37.2°F2.9°C 100% 1.1 mph SE1.8 kmh SE 1.1 mph1.8 kmh 29.90 in1012.5 mb - 0.00 in0.0 mm 0.04 in1.0 mm
04:00 AM 37.6°F3.1°C 37.6°F3.1°C 100% 1.1 mph E1.8 kmh E 2.3 mph3.7 kmh 29.90 in1012.5 mb - 0.00 in0.0 mm 0.04 in1.0 mm
03:45 AM 37.8°F3.2°C 37.8°F3.2°C 100% 1.1 mph ESE1.8 kmh ESE 5.8 mph9.3 kmh 29.89 in1012.2 mb - 0.00 in0.0 mm 0.04 in1.0 mm
03:30 AM 39.1°F3.9°C 39.1°F3.9°C 100% 1.1 mph E1.8 kmh E 5.8 mph9.3 kmh 29.88 in1011.9 mb - 0.00 in0.0 mm 0.04 in1.0 mm
03:15 AM 39.9°F4.4°C 39.9°F4.4°C 100% 2.3 mph ESE3.7 kmh ESE 4.6 mph7.4 kmh 29.89 in1012.2 mb - 0.00 in0.0 mm 0.04 in1.0 mm
03:00 AM 40.4°F4.7°C 40.4°F4.7°C 100% 2.3 mph S3.7 kmh S 4.6 mph7.4 kmh 29.87 in1011.5 mb - 0.00 in0.0 mm 0.04 in1.0 mm
02:45 AM 41.2°F5.1°C 41.2°F5.1°C 100% 3.5 mph NW5.6 kmh NW 5.8 mph9.3 kmh 29.87 in1011.5 mb - 0.00 in0.0 mm 0.04 in1.0 mm
02:30 AM 41.9°F5.5°C 41.9°F5.5°C 100% 3.5 mph SW5.6 kmh SW 3.5 mph5.6 kmh 29.84 in1010.5 mb - 0.00 in0.0 mm 0.04 in1.0 mm
02:15 AM 42.3°F5.7°C 42.3°F5.7°C 100% 2.3 mph E3.7 kmh E 3.5 mph5.6 kmh 29.84 in1010.5 mb - 0.00 in0.0 mm 0.04 in1.0 mm
02:00 AM 42.6°F5.9°C 42.6°F5.9°C 100% 1.1 mph S1.8 kmh S 3.5 mph5.6 kmh 29.81 in1009.5 mb - 0.00 in0.0 mm 0.04 in1.0 mm
01:45 AM 43.0°F6.1°C 43.0°F6.1°C 100% 1.1 mph ENE1.8 kmh ENE 3.5 mph5.6 kmh 29.81 in1009.5 mb - 0.00 in0.0 mm 0.04 in1.0 mm
01:30 AM 43.2°F6.2°C 43.2°F6.2°C 100% 2.3 mph W3.7 kmh W 4.6 mph7.4 kmh 29.81 in1009.5 mb - 0.00 in0.0 mm 0.04 in1.0 mm
01:15 AM 43.3°F6.3°C 43.3°F6.3°C 100% 1.1 mph SE1.8 kmh SE 2.3 mph3.7 kmh 29.80 in1009.1 mb - 0.00 in0.0 mm 0.04 in1.0 mm
01:00 AM 43.4°F6.3°C 43.4°F6.3°C 100% 1.1 mph S1.8 kmh S 1.1 mph1.8 kmh 29.78 in1008.5 mb - 0.00 in0.0 mm 0.04 in1.0 mm
12:45 AM 43.3°F6.3°C 43.3°F6.3°C 100% 1.1 mph NNE1.8 kmh NNE 2.3 mph3.7 kmh 29.78 in1008.5 mb - 0.00 in0.0 mm 0.04 in1.0 mm
12:30 AM 43.0°F6.1°C 43.0°F6.1°C 100% 1.1 mph E1.8 kmh E -- 29.78 in1008.5 mb - 0.00 in0.0 mm 0.04 in1.0 mm
12:15 AM 42.4°F5.8°C 42.4°F5.8°C 100% Calm Calm 1.1 mph1.8 kmh 29.75 in1007.5 mb - 0.00 in0.0 mm 0.04 in1.0 mm
12:00 AM 42.3°F5.7°C 42.3°F5.7°C 100% Calm Calm -- 29.75 in1007.5 mb - 0.04 in1.0 mm 0.04 in1.0 mm